sensor_id;sensor_type;location;lat;lon;timestamp;P1;durP1;ratioP1;P2;durP2;ratioP2
47960;SDS011;33721;48.852;9.936;2023-03-03T00:01:26;98.70;;;33.08;;
47960;SDS011;33721;48.852;9.936;2023-03-03T00:03:52;106.32;;;33.97;;
47960;SDS011;33721;48.852;9.936;2023-03-03T00:06:18;97.75;;;33.28;;
47960;SDS011;33721;48.852;9.936;2023-03-03T00:08:44;102.57;;;35.10;;
47960;SDS011;33721;48.852;9.936;2023-03-03T00:11:10;102.38;;;34.08;;
47960;SDS011;33721;48.852;9.936;2023-03-03T00:13:46;96.68;;;33.60;;
47960;SDS011;33721;48.852;9.936;2023-03-03T00:16:22;92.70;;;32.70;;
47960;SDS011;33721;48.852;9.936;2023-03-03T00:18:51;98.72;;;33.78;;
47960;SDS011;33721;48.852;9.936;2023-03-03T00:24:10;105.97;;;34.33;;
47960;SDS011;33721;48.852;9.936;2023-03-03T00:27:01;93.95;;;32.30;;
47960;SDS011;33721;48.852;9.936;2023-03-03T00:29:52;99.70;;;31.85;;
47960;SDS011;33721;48.852;9.936;2023-03-03T00:35:27;95.57;;;31.90;;
47960;SDS011;33721;48.852;9.936;2023-03-03T00:37:58;71.10;;;24.70;;
47960;SDS011;33721;48.852;9.936;2023-03-03T00:43:00;103.88;;;34.03;;
47960;SDS011;33721;48.852;9.936;2023-03-03T00:45:42;93.30;;;31.55;;
47960;SDS011;33721;48.852;9.936;2023-03-03T00:50:53;100.90;;;33.47;;
47960;SDS011;33721;48.852;9.936;2023-03-03T00:53:21;97.88;;;33.38;;
47960;SDS011;33721;48.852;9.936;2023-03-03T00:55:48;89.82;;;31.85;;
47960;SDS011;33721;48.852;9.936;2023-03-03T00:58:16;93.50;;;31.92;;
47960;SDS011;33721;48.852;9.936;2023-03-03T01:00:43;94.60;;;31.27;;
47960;SDS011;33721;48.852;9.936;2023-03-03T01:03:11;83.05;;;30.02;;
47960;SDS011;33721;48.852;9.936;2023-03-03T01:08:05;84.88;;;29.95;;
47960;SDS011;33721;48.852;9.936;2023-03-03T01:10:31;90.22;;;31.15;;
47960;SDS011;33721;48.852;9.936;2023-03-03T01:13:00;87.25;;;28.92;;
47960;SDS011;33721;48.852;9.936;2023-03-03T01:15:26;93.45;;;30.48;;
47960;SDS011;33721;48.852;9.936;2023-03-03T01:17:53;95.05;;;31.30;;
47960;SDS011;33721;48.852;9.936;2023-03-03T01:20:19;89.80;;;31.50;;
47960;SDS011;33721;48.852;9.936;2023-03-03T01:22:45;94.20;;;31.77;;
47960;SDS011;33721;48.852;9.936;2023-03-03T01:25:11;88.78;;;31.10;;
47960;SDS011;33721;48.852;9.936;2023-03-03T01:27:37;94.60;;;31.98;;
47960;SDS011;33721;48.852;9.936;2023-03-03T01:30:03;97.18;;;32.05;;
47960;SDS011;33721;48.852;9.936;2023-03-03T01:32:30;94.63;;;32.15;;
47960;SDS011;33721;48.852;9.936;2023-03-03T01:34:56;90.80;;;31.70;;
47960;SDS011;33721;48.852;9.936;2023-03-03T01:37:22;98.85;;;32.22;;
47960;SDS011;33721;48.852;9.936;2023-03-03T01:39:48;99.50;;;32.55;;
47960;SDS011;33721;48.852;9.936;2023-03-03T01:42:15;100.30;;;34.03;;
47960;SDS011;33721;48.852;9.936;2023-03-03T01:44:41;95.43;;;31.70;;
47960;SDS011;33721;48.852;9.936;2023-03-03T01:47:12;100.80;;;31.98;;
47960;SDS011;33721;48.852;9.936;2023-03-03T01:49:50;92.50;;;32.35;;
47960;SDS011;33721;48.852;9.936;2023-03-03T01:52:35;99.65;;;30.52;;
47960;SDS011;33721;48.852;9.936;2023-03-03T01:55:11;97.38;;;31.25;;
47960;SDS011;33721;48.852;9.936;2023-03-03T01:57:43;96.72;;;31.80;;
47960;SDS011;33721;48.852;9.936;2023-03-03T02:00:14;88.75;;;29.75;;
47960;SDS011;33721;48.852;9.936;2023-03-03T02:02:41;86.70;;;29.40;;
47960;SDS011;33721;48.852;9.936;2023-03-03T02:05:09;86.82;;;29.08;;
47960;SDS011;33721;48.852;9.936;2023-03-03T02:07:36;92.97;;;30.23;;
47960;SDS011;33721;48.852;9.936;2023-03-03T02:15:19;91.82;;;32.00;;
47960;SDS011;33721;48.852;9.936;2023-03-03T02:17:48;100.30;;;34.42;;
47960;SDS011;33721;48.852;9.936;2023-03-03T02:25:33;97.78;;;33.33;;
47960;SDS011;33721;48.852;9.936;2023-03-03T02:28:07;96.28;;;32.00;;
47960;SDS011;33721;48.852;9.936;2023-03-03T02:30:35;97.05;;;32.30;;
47960;SDS011;33721;48.852;9.936;2023-03-03T02:33:02;91.30;;;30.90;;
47960;SDS011;33721;48.852;9.936;2023-03-03T02:44:04;88.65;;;29.60;;
47960;SDS011;33721;48.852;9.936;2023-03-03T02:46:33;87.50;;;29.52;;
47960;SDS011;33721;48.852;9.936;2023-03-03T02:49:01;88.45;;;30.05;;
47960;SDS011;33721;48.852;9.936;2023-03-03T02:51:27;88.97;;;29.00;;
47960;SDS011;33721;48.852;9.936;2023-03-03T02:53:53;89.97;;;30.27;;
47960;SDS011;33721;48.852;9.936;2023-03-03T02:56:22;90.57;;;30.90;;
47960;SDS011;33721;48.852;9.936;2023-03-03T02:58:48;88.20;;;30.30;;
47960;SDS011;33721;48.852;9.936;2023-03-03T03:01:14;86.07;;;29.80;;
47960;SDS011;33721;48.852;9.936;2023-03-03T03:03:40;86.10;;;29.73;;
47960;SDS011;33721;48.852;9.936;2023-03-03T03:06:06;84.05;;;28.45;;
47960;SDS011;33721;48.852;9.936;2023-03-03T03:08:31;87.68;;;29.40;;
47960;SDS011;33721;48.852;9.936;2023-03-03T03:10:57;91.65;;;31.30;;
47960;SDS011;33721;48.852;9.936;2023-03-03T03:13:23;87.70;;;29.98;;
47960;SDS011;33721;48.852;9.936;2023-03-03T03:15:49;93.13;;;30.75;;
47960;SDS011;33721;48.852;9.936;2023-03-03T03:18:15;83.97;;;29.63;;
47960;SDS011;33721;48.852;9.936;2023-03-03T03:20:41;88.97;;;29.98;;
47960;SDS011;33721;48.852;9.936;2023-03-03T03:23:08;86.25;;;29.73;;
47960;SDS011;33721;48.852;9.936;2023-03-03T03:25:34;87.35;;;30.05;;
47960;SDS011;33721;48.852;9.936;2023-03-03T03:28:06;90.82;;;30.48;;
47960;SDS011;33721;48.852;9.936;2023-03-03T03:30:32;93.47;;;31.75;;
47960;SDS011;33721;48.852;9.936;2023-03-03T03:32:59;84.72;;;30.42;;
47960;SDS011;33721;48.852;9.936;2023-03-03T03:35:25;91.95;;;30.35;;
47960;SDS011;33721;48.852;9.936;2023-03-03T03:37:50;82.75;;;30.35;;
47960;SDS011;33721;48.852;9.936;2023-03-03T03:40:16;93.05;;;31.17;;
47960;SDS011;33721;48.852;9.936;2023-03-03T03:42:42;93.18;;;30.70;;
47960;SDS011;33721;48.852;9.936;2023-03-03T03:45:07;93.82;;;31.08;;
47960;SDS011;33721;48.852;9.936;2023-03-03T03:47:33;93.20;;;31.30;;
47960;SDS011;33721;48.852;9.936;2023-03-03T03:49:59;90.45;;;29.90;;
47960;SDS011;33721;48.852;9.936;2023-03-03T03:52:24;89.40;;;31.20;;
47960;SDS011;33721;48.852;9.936;2023-03-03T03:54:50;93.70;;;31.63;;
47960;SDS011;33721;48.852;9.936;2023-03-03T03:57:16;91.45;;;30.58;;
47960;SDS011;33721;48.852;9.936;2023-03-03T03:59:41;98.97;;;32.42;;
47960;SDS011;33721;48.852;9.936;2023-03-03T04:02:07;87.88;;;30.67;;
47960;SDS011;33721;48.852;9.936;2023-03-03T04:04:32;84.60;;;30.15;;
47960;SDS011;33721;48.852;9.936;2023-03-03T04:06:58;86.43;;;30.13;;
47960;SDS011;33721;48.852;9.936;2023-03-03T04:09:24;87.05;;;30.60;;
47960;SDS011;33721;48.852;9.936;2023-03-03T04:11:49;97.53;;;30.38;;
47960;SDS011;33721;48.852;9.936;2023-03-03T04:14:15;90.93;;;30.77;;
47960;SDS011;33721;48.852;9.936;2023-03-03T04:16:41;82.53;;;27.88;;
47960;SDS011;33721;48.852;9.936;2023-03-03T04:19:09;92.13;;;29.73;;
47960;SDS011;33721;48.852;9.936;2023-03-03T04:21:35;90.53;;;32.17;;
47960;SDS011;33721;48.852;9.936;2023-03-03T04:24:01;89.30;;;30.27;;
47960;SDS011;33721;48.852;9.936;2023-03-03T04:26:27;90.43;;;30.45;;
47960;SDS011;33721;48.852;9.936;2023-03-03T04:28:53;87.55;;;31.10;;
47960;SDS011;33721;48.852;9.936;2023-03-03T04:31:18;89.35;;;28.70;;
47960;SDS011;33721;48.852;9.936;2023-03-03T04:33:44;87.18;;;30.45;;
47960;SDS011;33721;48.852;9.936;2023-03-03T04:36:10;89.18;;;30.45;;
47960;SDS011;33721;48.852;9.936;2023-03-03T04:38:36;89.22;;;30.73;;
47960;SDS011;33721;48.852;9.936;2023-03-03T04:41:01;86.43;;;30.98;;
47960;SDS011;33721;48.852;9.936;2023-03-03T04:43:28;93.65;;;32.55;;
47960;SDS011;33721;48.852;9.936;2023-03-03T04:45:54;87.72;;;28.92;;
47960;SDS011;33721;48.852;9.936;2023-03-03T04:48:20;85.90;;;29.30;;
47960;SDS011;33721;48.852;9.936;2023-03-03T04:50:45;86.13;;;28.88;;
47960;SDS011;33721;48.852;9.936;2023-03-03T04:53:11;84.22;;;29.73;;
47960;SDS011;33721;48.852;9.936;2023-03-03T04:55:37;90.88;;;30.00;;
47960;SDS011;33721;48.852;9.936;2023-03-03T04:58:03;86.50;;;30.10;;
47960;SDS011;33721;48.852;9.936;2023-03-03T05:00:29;94.45;;;30.08;;
47960;SDS011;33721;48.852;9.936;2023-03-03T05:02:55;97.65;;;31.30;;
47960;SDS011;33721;48.852;9.936;2023-03-03T05:05:23;97.30;;;31.83;;
47960;SDS011;33721;48.852;9.936;2023-03-03T05:07:49;92.18;;;30.27;;
47960;SDS011;33721;48.852;9.936;2023-03-03T05:10:15;93.00;;;31.30;;
47960;SDS011;33721;48.852;9.936;2023-03-03T05:12:41;90.78;;;30.58;;
47960;SDS011;33721;48.852;9.936;2023-03-03T05:15:07;92.07;;;30.70;;
47960;SDS011;33721;48.852;9.936;2023-03-03T05:17:33;92.90;;;30.80;;
47960;SDS011;33721;48.852;9.936;2023-03-03T05:19:58;91.90;;;31.08;;
47960;SDS011;33721;48.852;9.936;2023-03-03T05:22:27;93.60;;;31.45;;
47960;SDS011;33721;48.852;9.936;2023-03-03T05:24:53;97.43;;;32.67;;
47960;SDS011;33721;48.852;9.936;2023-03-03T05:27:18;105.72;;;34.83;;
47960;SDS011;33721;48.852;9.936;2023-03-03T05:29:44;162.98;;;53.45;;
47960;SDS011;33721;48.852;9.936;2023-03-03T05:32:10;113.95;;;38.47;;
47960;SDS011;33721;48.852;9.936;2023-03-03T05:34:36;95.07;;;31.98;;
47960;SDS011;33721;48.852;9.936;2023-03-03T05:37:04;103.13;;;34.22;;
47960;SDS011;33721;48.852;9.936;2023-03-03T05:39:31;113.70;;;39.45;;
47960;SDS011;33721;48.852;9.936;2023-03-03T05:41:57;130.75;;;41.50;;
47960;SDS011;33721;48.852;9.936;2023-03-03T05:44:24;104.50;;;33.75;;
47960;SDS011;33721;48.852;9.936;2023-03-03T05:46:50;98.20;;;31.33;;
47960;SDS011;33721;48.852;9.936;2023-03-03T05:49:16;95.38;;;30.48;;
47960;SDS011;33721;48.852;9.936;2023-03-03T05:51:41;98.18;;;31.08;;
47960;SDS011;33721;48.852;9.936;2023-03-03T05:54:07;87.32;;;30.60;;
47960;SDS011;33721;48.852;9.936;2023-03-03T05:56:33;98.25;;;31.67;;
47960;SDS011;33721;48.852;9.936;2023-03-03T05:58:58;100.95;;;32.08;;
47960;SDS011;33721;48.852;9.936;2023-03-03T06:01:24;96.68;;;32.42;;
47960;SDS011;33721;48.852;9.936;2023-03-03T06:03:51;97.72;;;31.92;;
47960;SDS011;33721;48.852;9.936;2023-03-03T06:06:17;96.22;;;33.25;;
47960;SDS011;33721;48.852;9.936;2023-03-03T06:08:43;99.60;;;32.80;;
47960;SDS011;33721;48.852;9.936;2023-03-03T06:11:09;102.80;;;32.03;;
47960;SDS011;33721;48.852;9.936;2023-03-03T06:13:35;97.15;;;32.40;;
47960;SDS011;33721;48.852;9.936;2023-03-03T06:16:01;98.10;;;32.22;;
47960;SDS011;33721;48.852;9.936;2023-03-03T06:18:26;93.95;;;32.35;;
47960;SDS011;33721;48.852;9.936;2023-03-03T06:20:52;94.55;;;31.77;;
47960;SDS011;33721;48.852;9.936;2023-03-03T06:23:19;104.97;;;35.85;;
47960;SDS011;33721;48.852;9.936;2023-03-03T06:25:45;130.90;;;43.25;;
47960;SDS011;33721;48.852;9.936;2023-03-03T06:28:11;114.88;;;39.58;;
47960;SDS011;33721;48.852;9.936;2023-03-03T06:30:37;106.05;;;35.25;;
47960;SDS011;33721;48.852;9.936;2023-03-03T06:33:03;117.18;;;40.28;;
47960;SDS011;33721;48.852;9.936;2023-03-03T06:35:29;96.22;;;33.25;;
47960;SDS011;33721;48.852;9.936;2023-03-03T06:37:54;106.57;;;33.20;;
47960;SDS011;33721;48.852;9.936;2023-03-03T06:40:20;91.72;;;31.30;;
47960;SDS011;33721;48.852;9.936;2023-03-03T06:42:46;89.57;;;30.75;;
47960;SDS011;33721;48.852;9.936;2023-03-03T06:45:12;95.60;;;31.58;;
47960;SDS011;33721;48.852;9.936;2023-03-03T06:47:38;95.10;;;32.47;;
47960;SDS011;33721;48.852;9.936;2023-03-03T06:50:04;104.65;;;31.20;;
47960;SDS011;33721;48.852;9.936;2023-03-03T06:52:30;97.53;;;33.35;;
47960;SDS011;33721;48.852;9.936;2023-03-03T06:54:57;94.78;;;32.92;;
47960;SDS011;33721;48.852;9.936;2023-03-03T06:57:31;109.15;;;32.60;;
47960;SDS011;33721;48.852;9.936;2023-03-03T07:02:38;114.18;;;34.85;;
47960;SDS011;33721;48.852;9.936;2023-03-03T07:05:05;103.50;;;35.58;;
47960;SDS011;33721;48.852;9.936;2023-03-03T07:07:39;100.07;;;33.63;;
47960;SDS011;33721;48.852;9.936;2023-03-03T07:10:06;106.88;;;33.80;;
47960;SDS011;33721;48.852;9.936;2023-03-03T07:12:48;99.85;;;34.67;;
47960;SDS011;33721;48.852;9.936;2023-03-03T07:15:35;111.95;;;37.15;;
47960;SDS011;33721;48.852;9.936;2023-03-03T07:18:00;111.03;;;37.17;;
47960;SDS011;33721;48.852;9.936;2023-03-03T07:20:31;106.82;;;34.90;;
47960;SDS011;33721;48.852;9.936;2023-03-03T07:25:48;103.07;;;34.70;;
47960;SDS011;33721;48.852;9.936;2023-03-03T07:28:28;107.90;;;36.00;;
47960;SDS011;33721;48.852;9.936;2023-03-03T07:30:56;96.55;;;34.50;;
47960;SDS011;33721;48.852;9.936;2023-03-03T07:35:54;106.82;;;35.03;;
47960;SDS011;33721;48.852;9.936;2023-03-03T07:38:36;105.93;;;35.85;;
47960;SDS011;33721;48.852;9.936;2023-03-03T07:41:16;104.68;;;36.65;;
47960;SDS011;33721;48.852;9.936;2023-03-03T07:43:53;103.18;;;35.85;;
47960;SDS011;33721;48.852;9.936;2023-03-03T07:46:26;111.53;;;37.55;;
47960;SDS011;33721;48.852;9.936;2023-03-03T07:48:58;108.72;;;35.63;;
47960;SDS011;33721;48.852;9.936;2023-03-03T07:51:26;101.85;;;35.08;;
47960;SDS011;33721;48.852;9.936;2023-03-03T07:56:50;107.80;;;38.37;;
47960;SDS011;33721;48.852;9.936;2023-03-03T07:59:24;106.63;;;36.63;;
47960;SDS011;33721;48.852;9.936;2023-03-03T08:01:54;101.40;;;35.83;;
47960;SDS011;33721;48.852;9.936;2023-03-03T08:04:24;93.30;;;34.22;;
47960;SDS011;33721;48.852;9.936;2023-03-03T08:06:56;110.00;;;36.28;;
47960;SDS011;33721;48.852;9.936;2023-03-03T08:14:33;107.80;;;35.45;;
47960;SDS011;33721;48.852;9.936;2023-03-03T08:17:00;95.03;;;34.35;;
47960;SDS011;33721;48.852;9.936;2023-03-03T08:19:31;105.43;;;38.45;;
47960;SDS011;33721;48.852;9.936;2023-03-03T08:22:14;109.68;;;36.95;;
47960;SDS011;33721;48.852;9.936;2023-03-03T08:24:49;100.25;;;35.38;;
47960;SDS011;33721;48.852;9.936;2023-03-03T08:27:14;109.90;;;36.50;;
47960;SDS011;33721;48.852;9.936;2023-03-03T08:29:40;108.38;;;37.25;;
47960;SDS011;33721;48.852;9.936;2023-03-03T08:32:06;102.70;;;35.42;;
47960;SDS011;33721;48.852;9.936;2023-03-03T08:34:31;101.25;;;36.58;;
47960;SDS011;33721;48.852;9.936;2023-03-03T08:36:57;136.43;;;46.65;;
47960;SDS011;33721;48.852;9.936;2023-03-03T08:39:23;107.50;;;36.40;;
47960;SDS011;33721;48.852;9.936;2023-03-03T08:41:51;95.13;;;35.35;;
47960;SDS011;33721;48.852;9.936;2023-03-03T08:44:19;92.78;;;32.88;;
47960;SDS011;33721;48.852;9.936;2023-03-03T08:46:45;96.88;;;34.22;;
47960;SDS011;33721;48.852;9.936;2023-03-03T08:49:11;101.97;;;36.22;;
47960;SDS011;33721;48.852;9.936;2023-03-03T08:51:37;94.35;;;34.05;;
47960;SDS011;33721;48.852;9.936;2023-03-03T08:54:02;108.68;;;41.03;;
47960;SDS011;33721;48.852;9.936;2023-03-03T08:56:28;103.78;;;39.47;;
47960;SDS011;33721;48.852;9.936;2023-03-03T08:58:57;90.40;;;34.30;;
47960;SDS011;33721;48.852;9.936;2023-03-03T09:01:22;94.65;;;33.88;;
47960;SDS011;33721;48.852;9.936;2023-03-03T09:03:48;102.95;;;39.58;;
47960;SDS011;33721;48.852;9.936;2023-03-03T09:06:14;90.68;;;34.17;;
47960;SDS011;33721;48.852;9.936;2023-03-03T09:08:39;91.07;;;34.28;;
47960;SDS011;33721;48.852;9.936;2023-03-03T09:11:09;135.63;;;50.10;;
47960;SDS011;33721;48.852;9.936;2023-03-03T09:13:41;92.78;;;34.95;;
47960;SDS011;33721;48.852;9.936;2023-03-03T09:16:12;95.70;;;36.03;;
47960;SDS011;33721;48.852;9.936;2023-03-03T09:18:38;86.07;;;35.05;;
47960;SDS011;33721;48.852;9.936;2023-03-03T09:21:15;90.40;;;34.58;;
47960;SDS011;33721;48.852;9.936;2023-03-03T09:23:58;90.28;;;33.25;;
47960;SDS011;33721;48.852;9.936;2023-03-03T09:26:30;90.38;;;34.25;;
47960;SDS011;33721;48.852;9.936;2023-03-03T09:31:59;86.57;;;32.88;;
47960;SDS011;33721;48.852;9.936;2023-03-03T09:37:01;72.30;;;28.95;;
47960;SDS011;33721;48.852;9.936;2023-03-03T09:39:42;75.95;;;28.15;;
47960;SDS011;33721;48.852;9.936;2023-03-03T10:11:55;71.85;;;27.92;;
47960;SDS011;33721;48.852;9.936;2023-03-03T10:28:53;64.63;;;25.73;;
47960;SDS011;33721;48.852;9.936;2023-03-03T10:31:36;99.05;;;48.00;;
47960;SDS011;33721;48.852;9.936;2023-03-03T10:45:52;61.08;;;25.65;;
47960;SDS011;33721;48.852;9.936;2023-03-03T11:00:14;56.30;;;23.30;;
47960;SDS011;33721;48.852;9.936;2023-03-03T11:02:47;62.78;;;24.95;;
47960;SDS011;33721;48.852;9.936;2023-03-03T11:05:31;78.88;;;34.58;;
47960;SDS011;33721;48.852;9.936;2023-03-03T11:25:15;62.42;;;25.77;;
47960;SDS011;33721;48.852;9.936;2023-03-03T11:33:12;65.93;;;27.35;;
47960;SDS011;33721;48.852;9.936;2023-03-03T11:38:37;57.58;;;24.42;;
47960;SDS011;33721;48.852;9.936;2023-03-03T11:43:59;52.50;;;23.42;;
47960;SDS011;33721;48.852;9.936;2023-03-03T11:49:37;54.65;;;23.15;;
47960;SDS011;33721;48.852;9.936;2023-03-03T11:55:29;52.95;;;22.95;;
47960;SDS011;33721;48.852;9.936;2023-03-03T12:00:40;58.95;;;24.45;;
47960;SDS011;33721;48.852;9.936;2023-03-03T12:06:01;64.20;;;29.00;;
47960;SDS011;33721;48.852;9.936;2023-03-03T12:08:36;67.43;;;25.23;;
47960;SDS011;33721;48.852;9.936;2023-03-03T12:11:26;90.90;;;36.70;;
47960;SDS011;33721;48.852;9.936;2023-03-03T12:13:55;57.72;;;25.15;;
47960;SDS011;33721;48.852;9.936;2023-03-03T12:30:16;55.40;;;24.30;;
47960;SDS011;33721;48.852;9.936;2023-03-03T12:43:58;59.80;;;25.27;;
47960;SDS011;33721;48.852;9.936;2023-03-03T12:46:58;58.58;;;24.33;;
47960;SDS011;33721;48.852;9.936;2023-03-03T12:49:38;53.25;;;23.50;;
47960;SDS011;33721;48.852;9.936;2023-03-03T12:57:15;56.17;;;24.08;;
47960;SDS011;33721;48.852;9.936;2023-03-03T13:13:52;53.08;;;24.83;;
47960;SDS011;33721;48.852;9.936;2023-03-03T13:16:38;59.42;;;25.35;;
47960;SDS011;33721;48.852;9.936;2023-03-03T13:19:19;51.92;;;23.65;;
47960;SDS011;33721;48.852;9.936;2023-03-03T13:21:54;56.78;;;25.08;;
47960;SDS011;33721;48.852;9.936;2023-03-03T13:24:33;52.80;;;24.55;;
47960;SDS011;33721;48.852;9.936;2023-03-03T13:27:12;61.15;;;24.33;;
47960;SDS011;33721;48.852;9.936;2023-03-03T13:29:42;56.90;;;25.30;;
47960;SDS011;33721;48.852;9.936;2023-03-03T13:32:19;56.58;;;23.73;;
47960;SDS011;33721;48.852;9.936;2023-03-03T13:37:43;66.03;;;25.55;;
47960;SDS011;33721;48.852;9.936;2023-03-03T13:42:41;51.70;;;23.40;;
47960;SDS011;33721;48.852;9.936;2023-03-03T13:45:58;54.45;;;23.88;;
47960;SDS011;33721;48.852;9.936;2023-03-03T13:50:56;59.83;;;25.27;;
47960;SDS011;33721;48.852;9.936;2023-03-03T13:53:37;59.80;;;25.20;;
47960;SDS011;33721;48.852;9.936;2023-03-03T13:56:32;58.35;;;26.02;;
47960;SDS011;33721;48.852;9.936;2023-03-03T13:59:28;57.10;;;24.80;;
47960;SDS011;33721;48.852;9.936;2023-03-03T14:08:06;54.10;;;24.50;;
47960;SDS011;33721;48.852;9.936;2023-03-03T14:13:41;53.35;;;24.90;;
47960;SDS011;33721;48.852;9.936;2023-03-03T14:16:21;54.65;;;25.63;;
47960;SDS011;33721;48.852;9.936;2023-03-03T14:19:02;56.58;;;26.67;;
47960;SDS011;33721;48.852;9.936;2023-03-03T14:21:39;57.83;;;25.85;;
47960;SDS011;33721;48.852;9.936;2023-03-03T14:24:22;58.95;;;25.67;;
47960;SDS011;33721;48.852;9.936;2023-03-03T14:26:51;55.47;;;25.48;;
47960;SDS011;33721;48.852;9.936;2023-03-03T14:31:56;57.63;;;26.13;;
47960;SDS011;33721;48.852;9.936;2023-03-03T14:34:29;57.50;;;26.70;;
47960;SDS011;33721;48.852;9.936;2023-03-03T14:40:00;52.90;;;24.00;;
47960;SDS011;33721;48.852;9.936;2023-03-03T14:50:41;60.15;;;25.95;;
47960;SDS011;33721;48.852;9.936;2023-03-03T14:56:06;56.80;;;26.17;;
47960;SDS011;33721;48.852;9.936;2023-03-03T14:58:50;58.22;;;25.95;;
47960;SDS011;33721;48.852;9.936;2023-03-03T15:01:34;59.70;;;26.27;;
47960;SDS011;33721;48.852;9.936;2023-03-03T15:04:02;56.28;;;25.67;;
47960;SDS011;33721;48.852;9.936;2023-03-03T15:06:39;56.60;;;25.17;;
47960;SDS011;33721;48.852;9.936;2023-03-03T15:11:55;55.03;;;24.65;;
47960;SDS011;33721;48.852;9.936;2023-03-03T15:14:31;55.80;;;25.48;;
47960;SDS011;33721;48.852;9.936;2023-03-03T15:25:46;58.30;;;25.27;;
47960;SDS011;33721;48.852;9.936;2023-03-03T15:28:44;59.30;;;25.42;;
47960;SDS011;33721;48.852;9.936;2023-03-03T15:31:21;61.85;;;25.70;;
47960;SDS011;33721;48.852;9.936;2023-03-03T15:36:48;52.97;;;24.45;;
47960;SDS011;33721;48.852;9.936;2023-03-03T15:39:42;59.30;;;25.25;;
47960;SDS011;33721;48.852;9.936;2023-03-03T15:42:31;57.35;;;25.83;;
47960;SDS011;33721;48.852;9.936;2023-03-03T15:48:26;65.15;;;27.95;;
47960;SDS011;33721;48.852;9.936;2023-03-03T15:55:05;63.33;;;26.83;;
47960;SDS011;33721;48.852;9.936;2023-03-03T15:57:12;66.70;;;26.92;;
47960;SDS011;33721;48.852;9.936;2023-03-03T16:02:37;69.90;;;28.05;;
47960;SDS011;33721;48.852;9.936;2023-03-03T16:05:12;65.60;;;26.88;;
47960;SDS011;33721;48.852;9.936;2023-03-03T16:08:04;64.60;;;27.65;;
47960;SDS011;33721;48.852;9.936;2023-03-03T16:24:41;63.55;;;26.95;;
47960;SDS011;33721;48.852;9.936;2023-03-03T16:27:16;63.95;;;27.88;;
47960;SDS011;33721;48.852;9.936;2023-03-03T16:32:50;66.38;;;28.17;;
47960;SDS011;33721;48.852;9.936;2023-03-03T16:35:59;64.90;;;28.65;;
47960;SDS011;33721;48.852;9.936;2023-03-03T16:38:31;68.70;;;28.02;;
47960;SDS011;33721;48.852;9.936;2023-03-03T16:41:24;64.53;;;28.40;;
47960;SDS011;33721;48.852;9.936;2023-03-03T16:46:46;62.58;;;26.65;;
47960;SDS011;33721;48.852;9.936;2023-03-03T16:49:17;64.03;;;27.98;;
47960;SDS011;33721;48.852;9.936;2023-03-03T16:51:57;65.28;;;27.08;;
47960;SDS011;33721;48.852;9.936;2023-03-03T17:16:17;71.88;;;28.23;;
47960;SDS011;33721;48.852;9.936;2023-03-03T17:24:59;69.57;;;27.65;;
47960;SDS011;33721;48.852;9.936;2023-03-03T17:27:36;71.47;;;27.80;;
47960;SDS011;33721;48.852;9.936;2023-03-03T17:30:20;72.88;;;29.45;;
47960;SDS011;33721;48.852;9.936;2023-03-03T17:33:03;69.05;;;28.92;;
47960;SDS011;33721;48.852;9.936;2023-03-03T17:46:42;66.65;;;25.98;;
47960;SDS011;33721;48.852;9.936;2023-03-03T17:52:11;67.25;;;25.73;;
47960;SDS011;33721;48.852;9.936;2023-03-03T17:58:05;96.40;;;34.05;;
47960;SDS011;33721;48.852;9.936;2023-03-03T18:11:14;88.95;;;36.42;;
47960;SDS011;33721;48.852;9.936;2023-03-03T18:14:10;77.57;;;30.90;;
47960;SDS011;33721;48.852;9.936;2023-03-03T18:25:15;69.35;;;26.80;;
47960;SDS011;33721;48.852;9.936;2023-03-03T18:27:44;72.28;;;27.95;;
47960;SDS011;33721;48.852;9.936;2023-03-03T18:30:17;85.53;;;32.35;;
47960;SDS011;33721;48.852;9.936;2023-03-03T18:37:49;87.25;;;34.58;;
47960;SDS011;33721;48.852;9.936;2023-03-03T18:40:34;93.90;;;34.83;;
47960;SDS011;33721;48.852;9.936;2023-03-03T18:56:45;81.57;;;29.20;;
47960;SDS011;33721;48.852;9.936;2023-03-03T19:12:50;82.75;;;31.52;;
47960;SDS011;33721;48.852;9.936;2023-03-03T19:20:43;63.63;;;24.48;;
47960;SDS011;33721;48.852;9.936;2023-03-03T19:23:22;85.90;;;32.88;;
47960;SDS011;33721;48.852;9.936;2023-03-03T19:32:03;103.75;;;36.00;;
47960;SDS011;33721;48.852;9.936;2023-03-03T19:34:36;116.75;;;41.15;;
47960;SDS011;33721;48.852;9.936;2023-03-03T19:40:21;100.75;;;37.00;;
47960;SDS011;33721;48.852;9.936;2023-03-03T19:43:01;100.43;;;37.67;;
47960;SDS011;33721;48.852;9.936;2023-03-03T19:45:51;92.78;;;34.70;;
47960;SDS011;33721;48.852;9.936;2023-03-03T19:48:35;96.57;;;34.90;;
47960;SDS011;33721;48.852;9.936;2023-03-03T19:54:02;86.18;;;32.38;;
47960;SDS011;33721;48.852;9.936;2023-03-03T19:56:41;87.18;;;32.13;;
47960;SDS011;33721;48.852;9.936;2023-03-03T20:02:02;104.40;;;34.63;;
47960;SDS011;33721;48.852;9.936;2023-03-03T20:13:59;123.15;;;42.45;;
47960;SDS011;33721;48.852;9.936;2023-03-03T20:28:05;117.45;;;42.10;;
47960;SDS011;33721;48.852;9.936;2023-03-03T20:30:05;88.78;;;32.10;;
47960;SDS011;33721;48.852;9.936;2023-03-03T20:35:25;92.35;;;33.08;;
47960;SDS011;33721;48.852;9.936;2023-03-03T20:43:26;124.35;;;43.42;;
47960;SDS011;33721;48.852;9.936;2023-03-03T20:51:39;86.70;;;31.00;;
47960;SDS011;33721;48.852;9.936;2023-03-03T20:56:59;93.38;;;30.05;;
47960;SDS011;33721;48.852;9.936;2023-03-03T21:00:06;98.70;;;34.83;;
47960;SDS011;33721;48.852;9.936;2023-03-03T21:05:32;97.82;;;34.58;;
47960;SDS011;33721;48.852;9.936;2023-03-03T21:07:59;92.13;;;33.05;;
47960;SDS011;33721;48.852;9.936;2023-03-03T21:10:30;92.28;;;33.33;;
47960;SDS011;33721;48.852;9.936;2023-03-03T21:13:24;89.15;;;33.28;;
47960;SDS011;33721;48.852;9.936;2023-03-03T21:16:05;89.90;;;31.42;;
47960;SDS011;33721;48.852;9.936;2023-03-03T21:18:35;84.30;;;31.00;;
47960;SDS011;33721;48.852;9.936;2023-03-03T21:21:01;84.45;;;30.08;;
47960;SDS011;33721;48.852;9.936;2023-03-03T21:23:27;81.57;;;31.13;;
47960;SDS011;33721;48.852;9.936;2023-03-03T21:25:53;86.60;;;30.98;;
47960;SDS011;33721;48.852;9.936;2023-03-03T21:36:42;77.88;;;29.08;;
47960;SDS011;33721;48.852;9.936;2023-03-03T21:39:26;94.70;;;32.38;;
47960;SDS011;33721;48.852;9.936;2023-03-03T21:41:55;92.45;;;33.40;;
47960;SDS011;33721;48.852;9.936;2023-03-03T21:44:40;93.25;;;31.60;;
47960;SDS011;33721;48.852;9.936;2023-03-03T21:49:47;83.95;;;30.10;;
47960;SDS011;33721;48.852;9.936;2023-03-03T21:52:15;91.72;;;31.27;;
47960;SDS011;33721;48.852;9.936;2023-03-03T21:54:43;92.13;;;31.20;;
47960;SDS011;33721;48.852;9.936;2023-03-03T21:57:13;92.00;;;31.42;;
47960;SDS011;33721;48.852;9.936;2023-03-03T21:59:39;93.78;;;33.47;;
47960;SDS011;33721;48.852;9.936;2023-03-03T22:02:06;97.80;;;33.80;;
47960;SDS011;33721;48.852;9.936;2023-03-03T22:04:33;104.97;;;32.90;;
47960;SDS011;33721;48.852;9.936;2023-03-03T22:06:59;84.85;;;30.45;;
47960;SDS011;33721;48.852;9.936;2023-03-03T22:09:24;93.35;;;32.10;;
47960;SDS011;33721;48.852;9.936;2023-03-03T22:11:50;89.45;;;32.05;;
47960;SDS011;33721;48.852;9.936;2023-03-03T22:14:16;91.15;;;30.98;;